Flight Track Log - Related Links

Times and Time Zones

All times are in EDT time to prevent confusion due to time zone crossing. See the N400PU flight status page for this flight to view local times or setup timezone preferences in your user account.

Time Position Orientation Groundspeed Altitude Reporting Facility
EDT Latitude Longitude Course Direction KTS MPH feet Rate Location/Type
Mon 03:50:33 PM 41.7667 -87.7833 176° South 179 206 2,100  Level Chicago TRACON
Mon 03:52:00 PM 41.6756 -87.7742 176° South 267 307 6,400 2,940 Climbing Chicago Center
Mon 03:53:02 PM 41.6064 -87.7194 149° Southeast 285 328 9,400 2,226 Climbing Chicago Center
Mon 03:54:04 PM 41.5311 -87.6622 150° Southeast 313 360 11,000 774 Climbing Chicago Center
Mon 03:55:06 PM 41.4397 -87.6019 154° Southeast 352 405 11,000  Level Chicago Center
Mon 03:56:08 PM 41.3472 -87.5414 154° Southeast 366 421 11,000  Level Chicago Center
Mon 03:57:11 PM 41.2553 -87.4811 154° Southeast 369 425 11,000  Level Chicago Center
Mon 03:58:13 PM 41.1428 -87.4081 154° Southeast 375 432 11,000 -435 Level Chicago Center
Mon 03:59:15 PM 41.0517 -87.3494 154° Southeast 368 423 10,100 -844 Descending Chicago Center
Mon 03:59:17 PM 41.0475 -87.3483 169° South 369 425 10,100 -964 Level Chicago Center
Mon 04:00:11 PM 40.9764 -87.3017 154° Southeast 283 326 9,200 -900 Descending Chicago Center
Mon 04:00:17 PM 40.9781 -87.3003 32° Northeast 293 337 9,200 -1,279 Level Chicago Center
Mon 04:01:12 PM 40.9094 -87.2583 155° Southeast 268 308 7,900 -1,258 Descending Chicago Center
Mon 04:01:19 PM 40.9072 -87.2561 143° Southeast 280 322 7,900 -885 Level Chicago Center
Mon 04:02:13 PM 40.8361 -87.2119 155° Southeast 280 322 7,000 -871 Descending Chicago Center
Mon 04:02:21 PM 40.8375 -87.2117 North 279 321 7,000  Level Chicago Center
Mon 04:03:13 PM 40.7711 -87.1689 154° Southeast 277 319 7,000  Level Chicago Center
Mon 04:03:23 PM 40.7686 -87.1672 153° Southeast 278 320 7,000 -295 Level Chicago Center
Mon 04:04:14 PM 40.7000 -87.1228 154° Southeast 272 313 6,700 -581 Descending Chicago Center
Mon 04:04:25 PM 40.6878 -87.1131 149° Southeast 274 315 6,400 -1,700 Descending Chicago Center
Mon 04:05:14 PM 40.6367 -87.0828 156° South 266 306 5,000 -1,452 Descending Chicago Center
Mon 04:05:27 PM 40.6308 -87.0772 144° Southeast 261 300 4,900 -1,574 Descending Chicago Center
Mon 04:06:15 PM 40.5697 -87.0397 155° Southeast 251 289 3,400 -1,714 Descending Chicago Center
Mon 04:06:30 PM 40.5628 -87.0311 137° Southeast 252 290 3,100 -1,279 Descending Chicago Center
Mon 04:07:16 PM 40.5064 -87.0000 157° South 242 278 2,100 -566 Descending Chicago Center
Mon 04:08:16 PM 40.4636 -86.9725 154° Southeast 171 197 2,100 -50 Level Chicago Center
Mon 04:09:17 PM 40.4453 -86.9111 111° Southeast 177 204 2,000 -313 Descending Chicago Center
Mon 04:10:11 PM 40.4258 -86.8689 121° Southeast 163 188 1,500 -556 Descending Chicago Center

Login

Don't have an account? Register now (free) for customized features, flight alerts, and more!